sensor_id;sensor_type;location;lat;lon;timestamp;pressure;altitude;pressure_sealevel;temperature;humidity
3102;BME280;1561;42.666;23.392;2022-09-23T00:02:13;95439.19;;;7.98;100.00
3102;BME280;1561;42.666;23.392;2022-09-23T00:04:43;95434.88;;;7.98;100.00
3102;BME280;1561;42.666;23.392;2022-09-23T00:07:23;95439.88;;;7.87;100.00
3102;BME280;1561;42.666;23.392;2022-09-23T00:10:07;95437.75;;;7.94;100.00
3102;BME280;1561;42.666;23.392;2022-09-23T00:12:39;95428.56;;;8.16;100.00
3102;BME280;1561;42.666;23.392;2022-09-23T00:15:09;95437.94;;;8.03;100.00
3102;BME280;1561;42.666;23.392;2022-09-23T00:17:40;95435.31;;;7.80;100.00
3102;BME280;1561;42.666;23.392;2022-09-23T00:20:17;95383.91;;;7.12;100.00
3102;BME280;1561;42.666;23.392;2022-09-23T00:22:45;95408.41;;;7.26;100.00
3102;BME280;1561;42.666;23.392;2022-09-23T00:25:17;95439.13;;;7.48;100.00
3102;BME280;1561;42.666;23.392;2022-09-23T00:27:45;95430.31;;;7.53;100.00
3102;BME280;1561;42.666;23.392;2022-09-23T00:30:14;95446.38;;;7.54;100.00
3102;BME280;1561;42.666;23.392;2022-09-23T00:32:44;95440.78;;;7.49;100.00
3102;BME280;1561;42.666;23.392;2022-09-23T00:35:12;95355.84;;;7.01;100.00
3102;BME280;1561;42.666;23.392;2022-09-23T00:37:54;95359.00;;;7.05;100.00
3102;BME280;1561;42.666;23.392;2022-09-23T00:40:33;95420.41;;;7.36;100.00
3102;BME280;1561;42.666;23.392;2022-09-23T00:43:02;95422.34;;;7.33;100.00
3102;BME280;1561;42.666;23.392;2022-09-23T00:45:32;95429.47;;;7.40;100.00
3102;BME280;1561;42.666;23.392;2022-09-23T00:48:12;95384.28;;;7.06;100.00
3102;BME280;1561;42.666;23.392;2022-09-23T00:50:44;95433.94;;;7.24;100.00
3102;BME280;1561;42.666;23.392;2022-09-23T00:53:24;95438.78;;;7.15;100.00
3102;BME280;1561;42.666;23.392;2022-09-23T00:55:56;95432.25;;;7.11;100.00
3102;BME280;1561;42.666;23.392;2022-09-23T00:58:33;95376.78;;;6.66;100.00
3102;BME280;1561;42.666;23.392;2022-09-23T01:01:04;95373.72;;;6.61;100.00
3102;BME280;1561;42.666;23.392;2022-09-23T01:03:35;95419.06;;;6.79;100.00
3102;BME280;1561;42.666;23.392;2022-09-23T01:06:04;95389.50;;;6.78;100.00
3102;BME280;1561;42.666;23.392;2022-09-23T01:08:46;95340.53;;;6.37;100.00
3102;BME280;1561;42.666;23.392;2022-09-23T01:11:35;95445.38;;;7.05;100.00
3102;BME280;1561;42.666;23.392;2022-09-23T01:14:24;95442.91;;;7.03;100.00
3102;BME280;1561;42.666;23.392;2022-09-23T01:17:01;95440.88;;;6.96;100.00
3102;BME280;1561;42.666;23.392;2022-09-23T01:20:09;95413.53;;;6.73;100.00
3102;BME280;1561;42.666;23.392;2022-09-23T01:22:58;95403.06;;;6.91;100.00
3102;BME280;1561;42.666;23.392;2022-09-23T01:25:49;95426.22;;;6.87;100.00
3102;BME280;1561;42.666;23.392;2022-09-23T01:28:47;95423.94;;;6.82;100.00
3102;BME280;1561;42.666;23.392;2022-09-23T01:31:30;95428.97;;;6.96;100.00
3102;BME280;1561;42.666;23.392;2022-09-23T01:34:15;95360.16;;;6.48;100.00
3102;BME280;1561;42.666;23.392;2022-09-23T01:36:50;95432.25;;;6.84;100.00
3102;BME280;1561;42.666;23.392;2022-09-23T01:39:32;95445.09;;;6.83;100.00
3102;BME280;1561;42.666;23.392;2022-09-23T01:42:04;95433.66;;;6.76;100.00
3102;BME280;1561;42.666;23.392;2022-09-23T01:44:38;95420.06;;;6.50;100.00
3102;BME280;1561;42.666;23.392;2022-09-23T01:47:29;95441.78;;;6.68;100.00
3102;BME280;1561;42.666;23.392;2022-09-23T01:50:04;95446.88;;;6.81;100.00
3102;BME280;1561;42.666;23.392;2022-09-23T01:52:58;95433.28;;;6.55;100.00
3102;BME280;1561;42.666;23.392;2022-09-23T01:55:30;95440.25;;;6.66;100.00
3102;BME280;1561;42.666;23.392;2022-09-23T01:58:06;95430.56;;;6.58;100.00
3102;BME280;1561;42.666;23.392;2022-09-23T02:00:41;95444.13;;;6.71;100.00
3102;BME280;1561;42.666;23.392;2022-09-23T02:03:19;95446.09;;;6.66;100.00
3102;BME280;1561;42.666;23.392;2022-09-23T02:05:58;95442.84;;;6.64;100.00
3102;BME280;1561;42.666;23.392;2022-09-23T02:08:31;95439.44;;;6.78;100.00
3102;BME280;1561;42.666;23.392;2022-09-23T02:11:06;95440.66;;;6.72;100.00
3102;BME280;1561;42.666;23.392;2022-09-23T02:13:40;95370.28;;;6.62;100.00
3102;BME280;1561;42.666;23.392;2022-09-23T02:16:13;95365.16;;;6.49;100.00
3102;BME280;1561;42.666;23.392;2022-09-23T02:18:52;95436.66;;;7.09;100.00
3102;BME280;1561;42.666;23.392;2022-09-23T02:21:25;95430.34;;;7.14;100.00
3102;BME280;1561;42.666;23.392;2022-09-23T02:24:03;95436.63;;;6.82;100.00
3102;BME280;1561;42.666;23.392;2022-09-23T02:26:36;95321.97;;;6.10;100.00
3102;BME280;1561;42.666;23.392;2022-09-23T02:29:23;95430.94;;;6.79;100.00
3102;BME280;1561;42.666;23.392;2022-09-23T02:31:58;95442.09;;;6.76;100.00
3102;BME280;1561;42.666;23.392;2022-09-23T02:34:42;95363.69;;;6.19;100.00
3102;BME280;1561;42.666;23.392;2022-09-23T02:37:22;95447.59;;;6.56;100.00
3102;BME280;1561;42.666;23.392;2022-09-23T02:40:01;95437.91;;;6.49;100.00
3102;BME280;1561;42.666;23.392;2022-09-23T02:42:43;95458.47;;;6.44;100.00
3102;BME280;1561;42.666;23.392;2022-09-23T02:45:16;95459.88;;;6.22;100.00
3102;BME280;1561;42.666;23.392;2022-09-23T02:47:55;95460.41;;;6.27;100.00
3102;BME280;1561;42.666;23.392;2022-09-23T02:50:26;95452.97;;;6.24;100.00
3102;BME280;1561;42.666;23.392;2022-09-23T02:53:00;95462.59;;;6.19;100.00
3102;BME280;1561;42.666;23.392;2022-09-23T02:55:31;95437.94;;;6.07;100.00
3102;BME280;1561;42.666;23.392;2022-09-23T02:58:04;95470.72;;;6.24;100.00
3102;BME280;1561;42.666;23.392;2022-09-23T03:00:46;95470.94;;;6.21;100.00
3102;BME280;1561;42.666;23.392;2022-09-23T03:03:34;95466.13;;;6.16;100.00
3102;BME280;1561;42.666;23.392;2022-09-23T03:06:22;95460.97;;;6.04;100.00
3102;BME280;1561;42.666;23.392;2022-09-23T03:08:59;95417.59;;;5.80;100.00
3102;BME280;1561;42.666;23.392;2022-09-23T03:11:39;95470.28;;;6.03;100.00
3102;BME280;1561;42.666;23.392;2022-09-23T03:14:15;95464.13;;;6.07;100.00
3102;BME280;1561;42.666;23.392;2022-09-23T03:16:52;95442.78;;;5.83;100.00
3102;BME280;1561;42.666;23.392;2022-09-23T03:19:42;95462.69;;;6.03;100.00
3102;BME280;1561;42.666;23.392;2022-09-23T03:22:20;95469.03;;;6.24;100.00
3102;BME280;1561;42.666;23.392;2022-09-23T03:24:51;95394.53;;;5.99;100.00
3102;BME280;1561;42.666;23.392;2022-09-23T03:27:30;95462.75;;;6.16;100.00
3102;BME280;1561;42.666;23.392;2022-09-23T03:30:09;95465.75;;;5.94;100.00
3102;BME280;1561;42.666;23.392;2022-09-23T03:32:41;95464.13;;;6.07;100.00
3102;BME280;1561;42.666;23.392;2022-09-23T03:35:11;95446.78;;;5.72;100.00
3102;BME280;1561;42.666;23.392;2022-09-23T03:37:48;95465.75;;;5.94;100.00
3102;BME280;1561;42.666;23.392;2022-09-23T03:40:21;95471.00;;;5.91;100.00
3102;BME280;1561;42.666;23.392;2022-09-23T03:42:51;95456.22;;;5.70;100.00
3102;BME280;1561;42.666;23.392;2022-09-23T03:45:29;95465.16;;;5.61;100.00
3102;BME280;1561;42.666;23.392;2022-09-23T03:48:04;95469.59;;;5.72;100.00
3102;BME280;1561;42.666;23.392;2022-09-23T03:50:32;95467.34;;;5.67;100.00
3102;BME280;1561;42.666;23.392;2022-09-23T03:53:09;95477.25;;;5.56;100.00
3102;BME280;1561;42.666;23.392;2022-09-23T03:55:39;95475.09;;;5.50;100.00
3102;BME280;1561;42.666;23.392;2022-09-23T03:58:14;95451.78;;;5.30;100.00
3102;BME280;1561;42.666;23.392;2022-09-23T04:00:43;95477.63;;;5.50;100.00
3102;BME280;1561;42.666;23.392;2022-09-23T04:03:16;95482.25;;;5.58;100.00
3102;BME280;1561;42.666;23.392;2022-09-23T04:05:47;95485.69;;;5.57;100.00
3102;BME280;1561;42.666;23.392;2022-09-23T04:08:33;95485.22;;;5.50;100.00
3102;BME280;1561;42.666;23.392;2022-09-23T04:11:04;95496.91;;;5.67;100.00
3102;BME280;1561;42.666;23.392;2022-09-23T04:13:33;95492.28;;;5.59;100.00
3102;BME280;1561;42.666;23.392;2022-09-23T04:16:06;95491.44;;;5.45;100.00
3102;BME280;1561;42.666;23.392;2022-09-23T04:18:39;95493.88;;;5.46;100.00
3102;BME280;1561;42.666;23.392;2022-09-23T04:21:10;95490.44;;;5.47;100.00
3102;BME280;1561;42.666;23.392;2022-09-23T04:23:40;95494.81;;;5.59;100.00
3102;BME280;1561;42.666;23.392;2022-09-23T04:26:17;95480.91;;;5.52;100.00
3102;BME280;1561;42.666;23.392;2022-09-23T04:28:48;95489.13;;;5.56;100.00
3102;BME280;1561;42.666;23.392;2022-09-23T04:31:26;95501.63;;;5.59;100.00
3102;BME280;1561;42.666;23.392;2022-09-23T04:34:01;95437.81;;;5.23;100.00
3102;BME280;1561;42.666;23.392;2022-09-23T04:36:40;95499.25;;;5.99;100.00
3102;BME280;1561;42.666;23.392;2022-09-23T04:39:18;95517.84;;;6.00;100.00
3102;BME280;1561;42.666;23.392;2022-09-23T04:41:51;95504.41;;;5.84;100.00
3102;BME280;1561;42.666;23.392;2022-09-23T04:44:30;95490.22;;;5.66;100.00
3102;BME280;1561;42.666;23.392;2022-09-23T04:47:00;95515.41;;;5.69;100.00
3102;BME280;1561;42.666;23.392;2022-09-23T04:49:37;95519.94;;;5.78;100.00
3102;BME280;1561;42.666;23.392;2022-09-23T04:52:11;95458.03;;;5.68;100.00
3102;BME280;1561;42.666;23.392;2022-09-23T04:54:46;95523.53;;;6.17;100.00
3102;BME280;1561;42.666;23.392;2022-09-23T04:57:13;95528.81;;;6.14;100.00
3102;BME280;1561;42.666;23.392;2022-09-23T04:59:42;95520.38;;;6.56;100.00
3102;BME280;1561;42.666;23.392;2022-09-23T05:02:11;95468.84;;;6.13;100.00
3102;BME280;1561;42.666;23.392;2022-09-23T05:04:51;95520.00;;;6.62;100.00
3102;BME280;1561;42.666;23.392;2022-09-23T05:07:24;95496.06;;;6.66;100.00
3102;BME280;1561;42.666;23.392;2022-09-23T05:10:00;95509.00;;;7.16;100.00
3102;BME280;1561;42.666;23.392;2022-09-23T05:12:30;95501.94;;;7.33;100.00
3102;BME280;1561;42.666;23.392;2022-09-23T05:14:58;95507.03;;;8.47;100.00
3102;BME280;1561;42.666;23.392;2022-09-23T05:17:29;95489.75;;;8.88;100.00
3102;BME280;1561;42.666;23.392;2022-09-23T05:19:58;95486.91;;;9.51;100.00
3102;BME280;1561;42.666;23.392;2022-09-23T05:22:28;95491.03;;;9.41;100.00
3102;BME280;1561;42.666;23.392;2022-09-23T05:25:04;95497.44;;;10.49;100.00
3102;BME280;1561;42.666;23.392;2022-09-23T05:27:34;95498.69;;;11.41;100.00
3102;BME280;1561;42.666;23.392;2022-09-23T05:30:06;95492.78;;;12.73;100.00
3102;BME280;1561;42.666;23.392;2022-09-23T05:32:39;95495.41;;;12.22;100.00
3102;BME280;1561;42.666;23.392;2022-09-23T05:35:09;95485.28;;;12.00;100.00
3102;BME280;1561;42.666;23.392;2022-09-23T05:37:46;95503.47;;;11.66;100.00
3102;BME280;1561;42.666;23.392;2022-09-23T05:40:24;95484.25;;;11.08;100.00
3102;BME280;1561;42.666;23.392;2022-09-23T05:42:50;95500.19;;;11.01;100.00
3102;BME280;1561;42.666;23.392;2022-09-23T05:45:19;95501.00;;;10.79;100.00
3102;BME280;1561;42.666;23.392;2022-09-23T05:47:56;95497.44;;;10.71;100.00
3102;BME280;1561;42.666;23.392;2022-09-23T05:50:29;95499.28;;;10.14;100.00
3102;BME280;1561;42.666;23.392;2022-09-23T05:52:56;95503.84;;;9.98;100.00
3102;BME280;1561;42.666;23.392;2022-09-23T05:55:37;95493.16;;;9.82;100.00
3102;BME280;1561;42.666;23.392;2022-09-23T05:58:06;95483.31;;;9.88;100.00
3102;BME280;1561;42.666;23.392;2022-09-23T06:00:39;95399.88;;;9.67;100.00
3102;BME280;1561;42.666;23.392;2022-09-23T06:03:15;95464.03;;;10.52;100.00
3102;BME280;1561;42.666;23.392;2022-09-23T06:05:56;95494.19;;;10.36;100.00
3102;BME280;1561;42.666;23.392;2022-09-23T06:08:24;95392.16;;;9.79;100.00
3102;BME280;1561;42.666;23.392;2022-09-23T06:11:02;95487.22;;;10.71;100.00
3102;BME280;1561;42.666;23.392;2022-09-23T06:13:47;95491.53;;;10.37;100.00
3102;BME280;1561;42.666;23.392;2022-09-23T06:16:29;95482.25;;;11.23;100.00
3102;BME280;1561;42.666;23.392;2022-09-23T06:19:08;95490.84;;;12.05;100.00
3102;BME280;1561;42.666;23.392;2022-09-23T06:21:41;95476.34;;;13.53;100.00
3102;BME280;1561;42.666;23.392;2022-09-23T06:24:14;95475.19;;;15.22;100.00
3102;BME280;1561;42.666;23.392;2022-09-23T06:26:48;95467.97;;;17.06;79.89
3102;BME280;1561;42.666;23.392;2022-09-23T06:29:22;95467.13;;;15.87;87.08
3102;BME280;1561;42.666;23.392;2022-09-23T06:32:06;95464.41;;;18.04;72.02
3102;BME280;1561;42.666;23.392;2022-09-23T06:34:35;95462.63;;;16.99;75.24
3102;BME280;1561;42.666;23.392;2022-09-23T06:37:10;95471.84;;;16.68;78.14
3102;BME280;1561;42.666;23.392;2022-09-23T06:39:40;95433.75;;;17.85;70.87
3102;BME280;1561;42.666;23.392;2022-09-23T06:42:17;95468.53;;;18.69;63.68
3102;BME280;1561;42.666;23.392;2022-09-23T06:44:48;95463.47;;;17.89;66.69
3102;BME280;1561;42.666;23.392;2022-09-23T06:47:19;95481.25;;;15.30;87.01
3102;BME280;1561;42.666;23.392;2022-09-23T06:49:49;95480.94;;;14.89;91.34
3102;BME280;1561;42.666;23.392;2022-09-23T06:52:25;95486.44;;;15.21;92.19
3102;BME280;1561;42.666;23.392;2022-09-23T06:54:53;95467.06;;;17.31;75.61
3102;BME280;1561;42.666;23.392;2022-09-23T06:57:40;95487.41;;;16.84;72.65
3102;BME280;1561;42.666;23.392;2022-09-23T07:00:09;95471.97;;;16.59;75.00
3102;BME280;1561;42.666;23.392;2022-09-23T07:02:46;95471.75;;;17.27;68.77
3102;BME280;1561;42.666;23.392;2022-09-23T07:05:24;95494.66;;;15.86;79.20
3102;BME280;1561;42.666;23.392;2022-09-23T07:07:55;95498.09;;;15.77;79.80
3102;BME280;1561;42.666;23.392;2022-09-23T07:10:50;95483.97;;;18.07;68.05
3102;BME280;1561;42.666;23.392;2022-09-23T07:13:22;95488.81;;;18.18;66.35
3102;BME280;1561;42.666;23.392;2022-09-23T07:15:56;95498.50;;;17.84;66.40
3102;BME280;1561;42.666;23.392;2022-09-23T07:18:31;95457.13;;;18.16;64.24
3102;BME280;1561;42.666;23.392;2022-09-23T07:21:08;95492.66;;;17.58;64.97
3102;BME280;1561;42.666;23.392;2022-09-23T07:23:40;95494.47;;;18.13;66.86
3102;BME280;1561;42.666;23.392;2022-09-23T07:26:40;95503.81;;;17.58;67.97
3102;BME280;1561;42.666;23.392;2022-09-23T07:29:18;95495.91;;;18.00;64.23
3102;BME280;1561;42.666;23.392;2022-09-23T07:31:57;95503.50;;;18.57;63.01
3102;BME280;1561;42.666;23.392;2022-09-23T07:34:42;95506.84;;;20.26;55.42
3102;BME280;1561;42.666;23.392;2022-09-23T07:37:12;95486.56;;;18.15;61.73
3102;BME280;1561;42.666;23.392;2022-09-23T07:39:44;95506.66;;;18.91;60.94
3102;BME280;1561;42.666;23.392;2022-09-23T07:42:12;95501.44;;;20.13;55.37
3102;BME280;1561;42.666;23.392;2022-09-23T07:44:48;95499.94;;;19.74;56.12
3102;BME280;1561;42.666;23.392;2022-09-23T07:47:31;95439.97;;;18.93;57.03
3102;BME280;1561;42.666;23.392;2022-09-23T07:50:03;95506.22;;;18.72;60.82
3102;BME280;1561;42.666;23.392;2022-09-23T07:52:48;95505.56;;;18.70;62.09
3102;BME280;1561;42.666;23.392;2022-09-23T07:55:18;95503.53;;;19.42;57.15
3102;BME280;1561;42.666;23.392;2022-09-23T07:57:56;95496.25;;;19.91;55.28
3102;BME280;1561;42.666;23.392;2022-09-23T08:00:24;95502.53;;;19.05;61.75
3102;BME280;1561;42.666;23.392;2022-09-23T08:02:51;95515.31;;;17.96;64.42
3102;BME280;1561;42.666;23.392;2022-09-23T08:05:27;95495.91;;;19.71;58.38
3102;BME280;1561;42.666;23.392;2022-09-23T08:07:58;95507.06;;;19.72;55.73
3102;BME280;1561;42.666;23.392;2022-09-23T08:10:47;95458.56;;;20.40;53.15
3102;BME280;1561;42.666;23.392;2022-09-23T08:13:21;95505.28;;;21.06;50.01
3102;BME280;1561;42.666;23.392;2022-09-23T08:16:11;95510.31;;;18.26;60.09
3102;BME280;1561;42.666;23.392;2022-09-23T08:18:45;95502.22;;;18.53;61.94
3102;BME280;1561;42.666;23.392;2022-09-23T08:21:20;95494.47;;;19.38;56.98
3102;BME280;1561;42.666;23.392;2022-09-23T08:23:57;95499.69;;;20.65;52.91
3102;BME280;1561;42.666;23.392;2022-09-23T08:26:42;95495.34;;;19.31;56.66
3102;BME280;1561;42.666;23.392;2022-09-23T08:29:15;95435.28;;;20.32;51.33
3102;BME280;1561;42.666;23.392;2022-09-23T08:31:54;95483.22;;;20.87;51.08
3102;BME280;1561;42.666;23.392;2022-09-23T08:34:26;95481.91;;;22.19;46.12
3102;BME280;1561;42.666;23.392;2022-09-23T08:37:29;95492.16;;;20.85;50.22
3102;BME280;1561;42.666;23.392;2022-09-23T08:40:03;95455.56;;;20.94;49.40
3102;BME280;1561;42.666;23.392;2022-09-23T08:42:40;95494.69;;;20.04;51.41
3102;BME280;1561;42.666;23.392;2022-09-23T08:45:24;95492.56;;;19.85;51.41
3102;BME280;1561;42.666;23.392;2022-09-23T08:47:58;95492.25;;;20.77;48.63
3102;BME280;1561;42.666;23.392;2022-09-23T08:50:39;95479.72;;;20.95;48.96
3102;BME280;1561;42.666;23.392;2022-09-23T08:53:13;95482.47;;;21.93;45.76
3102;BME280;1561;42.666;23.392;2022-09-23T08:55:50;95444.06;;;22.71;41.24
3102;BME280;1561;42.666;23.392;2022-09-23T08:58:35;95473.78;;;23.84;39.34
3102;BME280;1561;42.666;23.392;2022-09-23T09:01:23;95472.16;;;22.48;42.01
3102;BME280;1561;42.666;23.392;2022-09-23T09:03:59;95471.28;;;23.03;41.30
3102;BME280;1561;42.666;23.392;2022-09-23T09:06:35;95481.72;;;20.93;44.15
3102;BME280;1561;42.666;23.392;2022-09-23T09:09:17;95460.22;;;20.18;47.13
3102;BME280;1561;42.666;23.392;2022-09-23T09:11:54;95484.50;;;20.91;46.84
3102;BME280;1561;42.666;23.392;2022-09-23T09:14:30;95479.09;;;21.57;45.79
3102;BME280;1561;42.666;23.392;2022-09-23T09:17:11;95480.59;;;22.29;44.21
3102;BME280;1561;42.666;23.392;2022-09-23T09:19:53;95476.91;;;22.45;42.84
3102;BME280;1561;42.666;23.392;2022-09-23T09:22:44;95465.97;;;22.28;41.69
3102;BME280;1561;42.666;23.392;2022-09-23T09:25:23;95479.22;;;21.35;43.93
3102;BME280;1561;42.666;23.392;2022-09-23T09:27:59;95489.34;;;20.94;44.17
3102;BME280;1561;42.666;23.392;2022-09-23T09:30:28;95472.63;;;20.45;45.26
3102;BME280;1561;42.666;23.392;2022-09-23T09:33:06;95482.50;;;20.93;44.77
3102;BME280;1561;42.666;23.392;2022-09-23T09:38:35;95479.34;;;20.54;44.85
3102;BME280;1561;42.666;23.392;2022-09-23T09:41:13;95458.00;;;21.88;40.74
3102;BME280;1561;42.666;23.392;2022-09-23T09:43:44;95470.22;;;21.87;42.25
3102;BME280;1561;42.666;23.392;2022-09-23T09:46:47;95455.88;;;19.74;45.78
3102;BME280;1561;42.666;23.392;2022-09-23T09:49:26;95478.72;;;20.52;45.61
3102;BME280;1561;42.666;23.392;2022-09-23T09:52:19;95495.59;;;20.34;44.22
3102;BME280;1561;42.666;23.392;2022-09-23T09:54:51;95488.69;;;21.07;42.47
3102;BME280;1561;42.666;23.392;2022-09-23T09:57:41;95472.94;;;21.44;43.49
3102;BME280;1561;42.666;23.392;2022-09-23T10:00:39;95471.97;;;21.66;41.66
3102;BME280;1561;42.666;23.392;2022-09-23T10:03:25;95470.31;;;20.50;43.47
3102;BME280;1561;42.666;23.392;2022-09-23T10:06:03;95485.13;;;20.05;42.03
3102;BME280;1561;42.666;23.392;2022-09-23T10:09:10;95470.34;;;21.08;39.57
3102;BME280;1561;42.666;23.392;2022-09-23T10:12:01;95469.50;;;21.22;41.18
3102;BME280;1561;42.666;23.392;2022-09-23T10:14:34;95464.28;;;21.37;41.02
3102;BME280;1561;42.666;23.392;2022-09-23T10:17:10;95459.69;;;20.00;41.67
3102;BME280;1561;42.666;23.392;2022-09-23T10:19:59;95456.13;;;20.24;40.87
3102;BME280;1561;42.666;23.392;2022-09-23T10:22:33;95400.75;;;20.89;40.29
3102;BME280;1561;42.666;23.392;2022-09-23T10:25:26;95453.16;;;22.06;39.83
3102;BME280;1561;42.666;23.392;2022-09-23T10:28:29;95428.94;;;21.63;39.38
3102;BME280;1561;42.666;23.392;2022-09-23T10:31:08;95433.59;;;22.99;37.54
3102;BME280;1561;42.666;23.392;2022-09-23T10:33:45;95442.06;;;21.34;39.17
3102;BME280;1561;42.666;23.392;2022-09-23T10:36:15;95405.63;;;21.13;38.38
3102;BME280;1561;42.666;23.392;2022-09-23T10:38:44;95427.41;;;22.11;37.27
3102;BME280;1561;42.666;23.392;2022-09-23T10:41:37;95444.81;;;22.65;36.46
3102;BME280;1561;42.666;23.392;2022-09-23T10:44:33;95439.81;;;21.88;37.80
3102;BME280;1561;42.666;23.392;2022-09-23T10:47:58;95431.88;;;21.04;39.54
3102;BME280;1561;42.666;23.392;2022-09-23T10:50:38;95435.66;;;20.72;40.14
3102;BME280;1561;42.666;23.392;2022-09-23T10:53:23;95416.31;;;22.30;37.90
3102;BME280;1561;42.666;23.392;2022-09-23T10:56:14;95435.84;;;20.85;39.44
3102;BME280;1561;42.666;23.392;2022-09-23T10:59:28;95437.56;;;21.28;38.51
3102;BME280;1561;42.666;23.392;2022-09-23T11:02:16;95427.22;;;21.14;38.53
3102;BME280;1561;42.666;23.392;2022-09-23T11:05:16;95375.50;;;19.74;40.17
3102;BME280;1561;42.666;23.392;2022-09-23T11:07:57;95419.75;;;20.46;39.25
3102;BME280;1561;42.666;23.392;2022-09-23T11:11:06;95420.75;;;21.45;37.62
3102;BME280;1561;42.666;23.392;2022-09-23T11:20:00;95405.63;;;21.70;37.44
3102;BME280;1561;42.666;23.392;2022-09-23T11:22:49;95403.28;;;20.02;39.18
3102;BME280;1561;42.666;23.392;2022-09-23T11:25:39;95399.75;;;20.61;38.01
3102;BME280;1561;42.666;23.392;2022-09-23T11:28:47;95400.53;;;21.41;36.68
3102;BME280;1561;42.666;23.392;2022-09-23T11:31:47;95372.13;;;21.39;36.10
3102;BME280;1561;42.666;23.392;2022-09-23T11:34:35;95299.41;;;20.68;34.92
3102;BME280;1561;42.666;23.392;2022-09-23T11:37:42;95366.09;;;21.60;34.23
3102;BME280;1561;42.666;23.392;2022-09-23T11:40:37;95392.00;;;20.32;36.20
3102;BME280;1561;42.666;23.392;2022-09-23T11:43:18;95386.34;;;20.14;37.32
3102;BME280;1561;42.666;23.392;2022-09-23T11:48:39;95331.41;;;19.59;36.29
3102;BME280;1561;42.666;23.392;2022-09-23T11:51:18;95385.97;;;20.17;36.65
3102;BME280;1561;42.666;23.392;2022-09-23T11:54:08;95375.06;;;20.65;36.82
3102;BME280;1561;42.666;23.392;2022-09-23T11:56:43;95362.53;;;20.25;37.53
3102;BME280;1561;42.666;23.392;2022-09-23T11:59:29;95375.78;;;19.56;38.83
3102;BME280;1561;42.666;23.392;2022-09-23T12:02:02;95369.66;;;19.72;38.67
3102;BME280;1561;42.666;23.392;2022-09-23T12:04:38;95370.69;;;19.48;39.63
3102;BME280;1561;42.666;23.392;2022-09-23T12:07:32;95369.38;;;19.52;39.74
3102;BME280;1561;42.666;23.392;2022-09-23T12:10:09;95365.09;;;19.59;40.17
3102;BME280;1561;42.666;23.392;2022-09-23T12:12:46;95373.44;;;19.24;41.22
3102;BME280;1561;42.666;23.392;2022-09-23T12:15:40;95389.66;;;19.26;43.23
3102;BME280;1561;42.666;23.392;2022-09-23T12:21:36;95362.13;;;17.06;56.82
3102;BME280;1561;42.666;23.392;2022-09-23T12:24:25;95363.56;;;16.92;58.56
3102;BME280;1561;42.666;23.392;2022-09-23T12:27:05;95380.19;;;17.06;58.36
3102;BME280;1561;42.666;23.392;2022-09-23T12:29:41;95327.25;;;16.78;57.69
3102;BME280;1561;42.666;23.392;2022-09-23T12:32:16;95352.69;;;16.65;59.97
3102;BME280;1561;42.666;23.392;2022-09-23T12:34:49;95343.22;;;16.39;62.12
3102;BME280;1561;42.666;23.392;2022-09-23T12:37:43;95374.31;;;16.38;61.57
3102;BME280;1561;42.666;23.392;2022-09-23T12:40:27;95375.56;;;16.34;60.86
3102;BME280;1561;42.666;23.392;2022-09-23T12:43:20;95373.38;;;16.13;61.66
3102;BME280;1561;42.666;23.392;2022-09-23T12:46:19;95344.97;;;15.97;61.85
3102;BME280;1561;42.666;23.392;2022-09-23T12:52:21;95359.19;;;16.93;56.58
3102;BME280;1561;42.666;23.392;2022-09-23T12:55:43;95370.19;;;17.11;55.90
3102;BME280;1561;42.666;23.392;2022-09-23T12:58:43;95370.22;;;17.19;55.70
3102;BME280;1561;42.666;23.392;2022-09-23T13:01:42;95377.59;;;16.98;57.39
3102;BME280;1561;42.666;23.392;2022-09-23T13:04:42;95366.34;;;17.23;55.59
3102;BME280;1561;42.666;23.392;2022-09-23T13:07:32;95363.97;;;17.61;53.51
3102;BME280;1561;42.666;23.392;2022-09-23T13:10:09;95373.41;;;16.97;54.76
3102;BME280;1561;42.666;23.392;2022-09-23T13:12:46;95373.28;;;17.06;55.46
3102;BME280;1561;42.666;23.392;2022-09-23T13:15:37;95376.00;;;16.97;57.20
3102;BME280;1561;42.666;23.392;2022-09-23T13:18:51;95373.63;;;17.35;55.96
3102;BME280;1561;42.666;23.392;2022-09-23T13:24:35;95383.97;;;17.27;56.36
3102;BME280;1561;42.666;23.392;2022-09-23T13:27:27;95352.22;;;16.77;58.90
3102;BME280;1561;42.666;23.392;2022-09-23T13:30:04;95370.72;;;17.14;56.99
3102;BME280;1561;42.666;23.392;2022-09-23T13:33:02;95344.03;;;16.82;55.89
3102;BME280;1561;42.666;23.392;2022-09-23T13:35:45;95376.66;;;16.99;56.26
3102;BME280;1561;42.666;23.392;2022-09-23T13:38:24;95376.13;;;16.87;56.88
3102;BME280;1561;42.666;23.392;2022-09-23T13:41:00;95380.19;;;16.90;57.16
3102;BME280;1561;42.666;23.392;2022-09-23T13:43:39;95361.69;;;17.18;55.67
3102;BME280;1561;42.666;23.392;2022-09-23T13:46:24;95374.25;;;17.29;54.43
3102;BME280;1561;42.666;23.392;2022-09-23T13:52:15;95351.50;;;17.17;53.23
3102;BME280;1561;42.666;23.392;2022-09-23T13:54:59;95365.22;;;17.33;52.95
3102;BME280;1561;42.666;23.392;2022-09-23T13:57:32;95342.47;;;17.21;53.64
3102;BME280;1561;42.666;23.392;2022-09-23T14:00:31;95368.72;;;17.00;54.80
3102;BME280;1561;42.666;23.392;2022-09-23T14:06:10;95341.13;;;16.77;55.51
3102;BME280;1561;42.666;23.392;2022-09-23T14:09:03;95359.34;;;16.91;56.15
3102;BME280;1561;42.666;23.392;2022-09-23T14:11:35;95351.91;;;16.72;56.97
3102;BME280;1561;42.666;23.392;2022-09-23T14:14:18;95354.47;;;16.72;57.06
3102;BME280;1561;42.666;23.392;2022-09-23T14:16:50;95355.72;;;16.52;58.66
3102;BME280;1561;42.666;23.392;2022-09-23T14:19:33;95348.13;;;16.17;60.82
3102;BME280;1561;42.666;23.392;2022-09-23T14:22:18;95347.22;;;16.26;61.00
3102;BME280;1561;42.666;23.392;2022-09-23T14:25:07;95356.00;;;16.15;61.49
3102;BME280;1561;42.666;23.392;2022-09-23T14:27:44;95356.84;;;16.58;59.95
3102;BME280;1561;42.666;23.392;2022-09-23T14:30:19;95351.56;;;16.67;58.64
3102;BME280;1561;42.666;23.392;2022-09-23T14:33:08;95345.88;;;16.48;58.10
3102;BME280;1561;42.666;23.392;2022-09-23T14:36:00;95353.03;;;16.70;56.63
3102;BME280;1561;42.666;23.392;2022-09-23T14:38:35;95328.63;;;16.48;55.64
3102;BME280;1561;42.666;23.392;2022-09-23T14:44:41;95349.31;;;16.30;57.49
3102;BME280;1561;42.666;23.392;2022-09-23T14:47:26;95342.06;;;16.26;57.14